createdAt,value
2022-10-06T00:01:25.254Z,20.50
2022-10-06T00:03:28.163Z,20.50
2022-10-06T00:05:31.492Z,20.60
2022-10-06T00:07:35.289Z,20.70
2022-10-06T00:09:38.166Z,20.70
2022-10-06T00:11:41.027Z,20.80
2022-10-06T00:13:43.988Z,20.80
2022-10-06T00:15:46.853Z,20.90
2022-10-06T00:17:51.493Z,20.90
2022-10-06T00:19:56.450Z,20.90
2022-10-06T00:21:59.608Z,20.90
2022-10-06T00:24:02.476Z,20.80
2022-10-06T00:26:05.361Z,20.80
2022-10-06T00:28:08.868Z,20.90
2022-10-06T00:30:14.227Z,20.90
2022-10-06T00:32:17.052Z,21.00
2022-10-06T00:34:21.253Z,20.90
2022-10-06T00:36:24.183Z,20.90
2022-10-06T00:38:27.653Z,20.90
2022-10-06T00:40:31.571Z,21.00
2022-10-06T00:42:34.531Z,21.00
2022-10-06T00:44:37.356Z,21.00
2022-10-06T00:46:45.223Z,21.00
2022-10-06T00:48:52.250Z,21.00
2022-10-06T00:50:58.790Z,21.00
2022-10-06T00:53:02.013Z,21.00
2022-10-06T00:55:09.155Z,21.00
2022-10-06T00:57:13.115Z,21.00
2022-10-06T00:59:19.049Z,21.00
2022-10-06T01:01:21.960Z,20.90
2022-10-06T01:03:28.976Z,20.90
2022-10-06T01:05:34.236Z,20.90
2022-10-06T01:07:38.686Z,20.90
2022-10-06T01:09:42.193Z,20.90
2022-10-06T01:11:47.235Z,20.90
2022-10-06T01:13:50.161Z,20.80
2022-10-06T01:15:57.546Z,20.90
2022-10-06T01:18:04.922Z,20.80
2022-10-06T01:20:11.365Z,20.70
2022-10-06T01:22:17.296Z,20.70
2022-10-06T01:24:21.682Z,20.70
2022-10-06T01:26:26.873Z,20.70
2022-10-06T01:28:30.193Z,20.70
2022-10-06T01:30:40.089Z,20.70
2022-10-06T01:32:44.082Z,20.70
2022-10-06T01:34:46.997Z,20.60
2022-10-06T01:36:49.820Z,20.60
2022-10-06T01:38:52.606Z,20.60
2022-10-06T01:40:56.833Z,20.70
2022-10-06T01:42:59.629Z,20.60
2022-10-06T01:45:02.699Z,20.70
2022-10-06T01:47:06.375Z,20.60
2022-10-06T01:49:09.131Z,20.60
2022-10-06T01:51:15.977Z,20.70
2022-10-06T01:53:19.397Z,20.70
2022-10-06T01:55:22.242Z,20.60
2022-10-06T01:57:26.650Z,20.60
2022-10-06T01:59:29.463Z,20.60
2022-10-06T02:01:32.418Z,20.60
2022-10-06T02:03:36.120Z,20.60
2022-10-06T02:05:39.010Z,20.30
2022-10-06T02:07:41.839Z,20.00
2022-10-06T02:09:44.778Z,19.70
2022-10-06T02:11:47.636Z,19.40
2022-10-06T02:13:51.746Z,19.10
2022-10-06T02:15:57.319Z,18.90
2022-10-06T02:18:00.450Z,18.70
2022-10-06T02:20:03.217Z,18.70
2022-10-06T02:22:06.156Z,18.50
2022-10-06T02:24:09.016Z,18.60
2022-10-06T02:26:12.182Z,18.50
2022-10-06T02:28:17.209Z,18.50
2022-10-06T02:30:21.447Z,18.40
2022-10-06T02:32:24.290Z,18.30
2022-10-06T02:34:27.202Z,18.20
2022-10-06T02:36:29.978Z,18.20
2022-10-06T02:38:32.984Z,18.20
2022-10-06T02:40:35.826Z,18.10
2022-10-06T02:42:39.711Z,18.00
2022-10-06T02:44:42.538Z,17.90
2022-10-06T02:46:46.691Z,17.60
2022-10-06T02:48:49.495Z,17.10
2022-10-06T02:50:59.493Z,17.10
2022-10-06T02:53:02.258Z,16.60
2022-10-06T02:55:08.526Z,16.70
2022-10-06T02:57:11.347Z,16.60
2022-10-06T02:59:14.117Z,16.60
2022-10-06T03:01:19.276Z,16.60
2022-10-06T03:03:23.459Z,16.30
2022-10-06T03:05:26.339Z,16.30
2022-10-06T03:07:29.122Z,16.40
2022-10-06T03:09:31.894Z,16.20
2022-10-06T03:11:36.345Z,15.90
2022-10-06T03:13:39.101Z,15.90
2022-10-06T03:15:41.902Z,15.90
2022-10-06T03:17:44.693Z,16.00
2022-10-06T03:19:48.792Z,16.00
2022-10-06T03:21:51.643Z,16.10
2022-10-06T03:23:56.353Z,16.10
2022-10-06T03:25:59.186Z,16.20
2022-10-06T03:28:02.008Z,16.20
2022-10-06T03:30:06.008Z,16.30
2022-10-06T03:32:08.797Z,16.40
2022-10-06T03:34:13.453Z,16.50
2022-10-06T03:36:19.961Z,16.40
2022-10-06T03:38:22.763Z,16.40
2022-10-06T03:40:25.542Z,16.40
2022-10-06T03:42:28.328Z,16.50
2022-10-06T03:44:34.773Z,16.50
2022-10-06T03:46:38.176Z,16.50
2022-10-06T03:48:41.337Z,16.60
2022-10-06T03:50:45.871Z,16.70
2022-10-06T03:52:51.336Z,16.70
2022-10-06T03:54:54.131Z,16.70
2022-10-06T03:56:56.915Z,16.70
2022-10-06T03:59:01.574Z,16.60
2022-10-06T04:01:07.939Z,16.60
2022-10-06T04:03:11.076Z,16.60
2022-10-06T04:05:14.009Z,16.60
2022-10-06T04:07:16.762Z,16.50
2022-10-06T04:09:21.096Z,16.50
2022-10-06T04:11:26.024Z,16.50
2022-10-06T04:13:28.783Z,16.50
2022-10-06T04:15:32.511Z,16.30
2022-10-06T04:17:35.295Z,16.30
2022-10-06T04:19:38.095Z,16.30
2022-10-06T04:21:43.311Z,16.30
2022-10-06T04:23:46.354Z,16.30
2022-10-06T04:25:55.184Z,16.30
2022-10-06T04:27:59.326Z,16.30
2022-10-06T04:30:02.141Z,16.30
2022-10-06T04:32:04.906Z,16.30
2022-10-06T04:34:08.974Z,16.20
2022-10-06T04:36:15.083Z,16.20
2022-10-06T04:38:17.846Z,16.20
2022-10-06T04:40:20.621Z,16.20
2022-10-06T04:42:24.830Z,16.10
2022-10-06T04:44:28.407Z,16.10
2022-10-06T04:46:47.928Z,16.10
2022-10-06T04:48:51.849Z,16.00
2022-10-06T04:50:55.780Z,16.00
2022-10-06T04:52:58.585Z,16.00
2022-10-06T04:55:01.430Z,16.00
2022-10-06T04:57:04.406Z,16.00
2022-10-06T04:59:08.643Z,16.00
2022-10-06T05:01:14.709Z,16.00
2022-10-06T05:03:17.538Z,16.10
2022-10-06T05:05:20.328Z,16.20
2022-10-06T05:07:23.152Z,16.30
2022-10-06T05:09:25.938Z,16.20
2022-10-06T05:11:29.701Z,16.20
2022-10-06T05:13:32.522Z,16.10
2022-10-06T05:15:36.727Z,16.00
2022-10-06T05:17:39.522Z,16.10
2022-10-06T05:19:42.302Z,16.10
2022-10-06T05:21:45.375Z,16.10
2022-10-06T05:23:48.601Z,16.10
2022-10-06T05:25:52.462Z,16.00
2022-10-06T05:27:55.494Z,16.00
2022-10-06T05:29:58.337Z,16.00
2022-10-06T05:32:02.728Z,16.00
2022-10-06T05:34:06.132Z,16.00
2022-10-06T05:36:12.420Z,16.00
2022-10-06T05:38:15.232Z,15.90
2022-10-06T05:40:18.019Z,16.00
2022-10-06T05:42:21.131Z,16.00
2022-10-06T05:44:24.016Z,16.00
2022-10-06T05:46:28.822Z,16.00
2022-10-06T05:48:33.260Z,15.90
2022-10-06T05:50:36.110Z,15.90
2022-10-06T05:52:38.923Z,15.90
2022-10-06T05:54:41.934Z,16.00
2022-10-06T05:56:44.997Z,16.00
2022-10-06T05:58:49.080Z,16.10
2022-10-06T06:00:52.126Z,16.10
2022-10-06T06:02:54.956Z,16.00
2022-10-06T06:04:59.152Z,16.00
2022-10-06T06:07:01.910Z,16.00
2022-10-06T06:09:07.802Z,15.90
2022-10-06T06:11:10.872Z,15.90
2022-10-06T06:13:13.636Z,15.90
2022-10-06T06:15:33.958Z,15.80
2022-10-06T06:17:36.731Z,15.90
2022-10-06T06:19:39.530Z,16.00
2022-10-06T06:21:43.881Z,16.00
2022-10-06T06:23:51.052Z,16.00
2022-10-06T06:26:02.408Z,16.10
2022-10-06T06:28:05.805Z,16.10
2022-10-06T06:30:12.911Z,16.10
2022-10-06T06:32:16.576Z,16.00
2022-10-06T06:34:19.363Z,16.00
2022-10-06T06:36:24.903Z,15.90
2022-10-06T06:38:29.512Z,15.80
2022-10-06T06:40:32.512Z,15.80
2022-10-06T06:42:35.365Z,15.80
2022-10-06T06:44:38.707Z,15.90
2022-10-06T06:46:43.210Z,15.90
2022-10-06T06:48:47.191Z,15.90
2022-10-06T06:50:58.351Z,15.90
2022-10-06T06:53:02.411Z,16.00
2022-10-06T06:55:07.303Z,16.10
2022-10-06T06:57:10.086Z,16.10
2022-10-06T06:59:13.690Z,16.20
2022-10-06T07:01:18.383Z,16.30
2022-10-06T07:03:55.543Z,16.40
2022-10-06T07:05:49.650Z,16.30
2022-10-06T07:07:52.442Z,16.30
2022-10-06T07:09:55.290Z,16.20
2022-10-06T07:11:59.465Z,16.30
2022-10-06T07:14:04.124Z,16.40
2022-10-06T07:16:24.736Z,16.50
2022-10-06T07:18:59.374Z,16.50
2022-10-06T07:21:19.994Z,16.50
2022-10-06T07:23:40.738Z,16.40
2022-10-06T07:25:43.522Z,16.40
2022-10-06T07:27:51.035Z,16.40
2022-10-06T07:29:55.138Z,16.30
2022-10-06T07:31:58.660Z,16.30
2022-10-06T07:34:04.827Z,16.40
2022-10-06T07:36:07.823Z,16.50
2022-10-06T07:38:10.645Z,16.60
2022-10-06T07:40:14.805Z,16.60
2022-10-06T07:42:18.319Z,16.70
2022-10-06T07:44:23.125Z,16.70
2022-10-06T07:46:28.025Z,16.80
2022-10-06T07:48:30.859Z,16.90
2022-10-06T07:50:34.167Z,16.90
2022-10-06T07:52:39.055Z,17.00
2022-10-06T07:54:44.488Z,17.00
2022-10-06T07:56:47.279Z,17.00
2022-10-06T07:58:51.166Z,17.20
2022-10-06T08:00:55.331Z,17.30
2022-10-06T08:02:58.178Z,17.30
2022-10-06T08:05:01.030Z,17.40
2022-10-06T08:07:04.484Z,17.40
2022-10-06T08:09:07.573Z,17.40
2022-10-06T08:11:11.545Z,17.30
2022-10-06T08:13:14.503Z,17.20
2022-10-06T08:15:18.225Z,17.10
2022-10-06T08:17:22.358Z,17.00
2022-10-06T08:19:25.324Z,17.10
2022-10-06T08:21:30.299Z,17.30
2022-10-06T08:23:33.082Z,17.40
2022-10-06T08:25:36.241Z,17.30
2022-10-06T08:27:40.423Z,17.10
2022-10-06T08:29:43.209Z,17.10
2022-10-06T08:31:46.016Z,17.00
2022-10-06T08:33:54.334Z,17.20
2022-10-06T08:36:02.461Z,17.30
2022-10-06T08:38:05.256Z,17.40
2022-10-06T08:40:12.966Z,17.20
2022-10-06T08:42:21.642Z,17.30
2022-10-06T08:44:31.507Z,17.40
2022-10-06T08:46:40.587Z,17.40
2022-10-06T08:48:43.667Z,17.40
2022-10-06T08:50:56.646Z,17.50
2022-10-06T08:53:14.020Z,17.40
2022-10-06T08:55:35.355Z,17.50
2022-10-06T08:57:43.262Z,17.60
2022-10-06T08:59:50.005Z,17.70
2022-10-06T09:01:55.003Z,17.70
2022-10-06T09:04:02.259Z,17.80
2022-10-06T09:06:16.194Z,17.90
2022-10-06T09:08:35.085Z,18.00
2022-10-06T09:10:44.166Z,18.10
2022-10-06T09:12:52.600Z,18.30
2022-10-06T09:15:11.494Z,18.30
2022-10-06T09:17:19.438Z,18.30
2022-10-06T09:19:29.958Z,18.20
2022-10-06T09:21:43.532Z,18.20
2022-10-06T09:23:53.894Z,18.20
2022-10-06T09:25:58.209Z,18.20
2022-10-06T09:28:03.262Z,18.30
2022-10-06T09:30:08.608Z,18.30
2022-10-06T09:32:11.882Z,18.30
2022-10-06T09:34:21.224Z,18.30
2022-10-06T09:36:24.158Z,18.40
2022-10-06T09:38:47.655Z,18.40
2022-10-06T09:40:52.849Z,18.50
2022-10-06T09:42:56.315Z,18.60
2022-10-06T09:45:01.822Z,18.70
2022-10-06T09:47:25.075Z,18.80
2022-10-06T09:49:31.368Z,18.80
2022-10-06T09:51:38.029Z,18.80
2022-10-06T09:53:42.893Z,18.90
2022-10-06T09:55:51.765Z,18.90
2022-10-06T09:57:57.208Z,18.90
2022-10-06T10:00:00.205Z,18.90
2022-10-06T10:02:04.837Z,19.00
2022-10-06T10:04:21.387Z,19.00
2022-10-06T10:06:27.522Z,19.00
2022-10-06T10:08:30.924Z,18.90
2022-10-06T10:10:36.586Z,18.80
2022-10-06T10:12:49.334Z,18.90
2022-10-06T10:14:53.088Z,19.10
2022-10-06T10:16:55.892Z,19.10
2022-10-06T10:19:00.074Z,19.10
2022-10-06T10:21:06.152Z,19.20
2022-10-06T10:23:27.207Z,19.30
2022-10-06T10:25:47.900Z,19.20
2022-10-06T10:28:01.987Z,19.10
2022-10-06T10:30:10.269Z,18.90
2022-10-06T10:32:18.362Z,18.70
2022-10-06T10:34:34.943Z,18.60
2022-10-06T10:36:40.515Z,18.50
2022-10-06T10:38:46.739Z,18.60
2022-10-06T10:40:56.246Z,18.80
2022-10-06T10:43:07.826Z,18.90
2022-10-06T10:45:18.510Z,19.00
2022-10-06T10:47:27.738Z,19.00
2022-10-06T10:49:31.093Z,19.10
2022-10-06T10:51:37.553Z,19.30
2022-10-06T10:53:47.161Z,19.30
2022-10-06T10:55:53.815Z,19.30
2022-10-06T10:58:00.545Z,19.30
2022-10-06T11:00:07.444Z,19.30
2022-10-06T11:02:16.743Z,19.30
2022-10-06T11:04:20.416Z,19.30
2022-10-06T11:06:56.668Z,19.40
2022-10-06T11:09:04.046Z,19.50
2022-10-06T11:11:16.879Z,19.40
2022-10-06T11:13:27.562Z,19.40
2022-10-06T11:15:47.450Z,19.30
2022-10-06T11:17:53.599Z,19.20
2022-10-06T11:20:03.646Z,19.10
2022-10-06T11:22:12.451Z,19.10
2022-10-06T11:24:21.559Z,19.10
2022-10-06T11:26:41.678Z,19.00
2022-10-06T11:28:50.145Z,19.10
2022-10-06T11:31:00.780Z,19.20
2022-10-06T11:33:13.559Z,19.10
2022-10-06T11:35:21.616Z,19.00
2022-10-06T11:37:37.101Z,19.20
2022-10-06T11:39:49.125Z,19.40
2022-10-06T11:42:01.066Z,19.50
2022-10-06T11:44:07.596Z,19.60
2022-10-06T11:46:23.334Z,19.80
2022-10-06T11:48:27.867Z,20.00
2022-10-06T11:50:35.039Z,20.10
2022-10-06T11:52:56.263Z,20.30
2022-10-06T11:55:10.076Z,20.40
2022-10-06T11:57:33.780Z,20.50
2022-10-06T11:59:36.597Z,20.60
2022-10-06T12:01:53.573Z,20.50
2022-10-06T12:04:14.986Z,20.50
2022-10-06T12:07:06.455Z,20.40
2022-10-06T12:09:44.615Z,20.30
2022-10-06T12:11:48.011Z,20.20
2022-10-06T12:19:03.578Z,20.60
2022-10-06T12:21:31.349Z,20.70
2022-10-06T12:23:47.533Z,20.50
2022-10-06T12:25:56.596Z,20.50
2022-10-06T12:28:09.778Z,20.50
2022-10-06T12:30:24.333Z,20.60
2022-10-06T12:32:41.031Z,20.50
2022-10-06T12:35:03.067Z,20.20
2022-10-06T12:37:22.915Z,20.20
2022-10-06T12:39:25.857Z,20.20
2022-10-06T12:41:59.427Z,20.30
2022-10-06T12:44:03.851Z,20.30
2022-10-06T12:46:16.618Z,20.30
2022-10-06T12:48:24.011Z,20.20
2022-10-06T12:50:28.130Z,20.40
2022-10-06T12:52:47.938Z,20.50
2022-10-06T12:55:01.315Z,20.50
2022-10-06T12:57:18.058Z,20.50
2022-10-06T12:59:26.040Z,20.60
2022-10-06T13:01:31.104Z,20.70
2022-10-06T13:03:35.316Z,20.60
2022-10-06T13:05:38.214Z,20.40
2022-10-06T13:07:57.459Z,20.20
2022-10-06T13:10:19.426Z,20.30
2022-10-06T13:12:29.287Z,20.30
2022-10-06T13:14:32.131Z,20.40
2022-10-06T13:16:40.592Z,20.40
2022-10-06T13:18:43.538Z,20.50
2022-10-06T13:20:49.368Z,20.40
2022-10-06T13:23:01.146Z,20.20
2022-10-06T13:25:04.135Z,20.20
2022-10-06T13:27:07.115Z,20.30
2022-10-06T13:29:21.740Z,20.40
2022-10-06T13:31:27.232Z,20.50
2022-10-06T13:33:35.971Z,20.60
2022-10-06T13:35:39.272Z,20.70
2022-10-06T13:37:42.140Z,20.80
2022-10-06T13:39:44.987Z,21.00
2022-10-06T13:41:50.772Z,21.10
2022-10-06T13:43:56.761Z,21.10
2022-10-06T13:46:00.410Z,21.20
2022-10-06T13:48:08.630Z,21.20
2022-10-06T13:50:19.791Z,21.10
2022-10-06T13:52:32.985Z,21.00
2022-10-06T13:54:41.107Z,21.00
2022-10-06T13:56:44.365Z,21.00
2022-10-06T13:58:47.736Z,21.10
2022-10-06T14:00:55.921Z,21.10
2022-10-06T14:03:12.269Z,21.10
2022-10-06T14:05:31.775Z,20.90
2022-10-06T14:07:34.623Z,20.80
2022-10-06T14:09:37.515Z,20.90
2022-10-06T14:11:43.383Z,20.90
2022-10-06T14:13:52.943Z,20.80
2022-10-06T14:15:59.200Z,20.80
2022-10-06T14:18:04.478Z,20.80
2022-10-06T14:20:38.468Z,20.90
2022-10-06T14:22:41.457Z,20.90
2022-10-06T14:24:52.162Z,20.90
2022-10-06T14:26:57.136Z,21.00
2022-10-06T14:29:00.728Z,20.90
2022-10-06T14:31:03.730Z,21.00
2022-10-06T14:33:06.630Z,21.00
2022-10-06T14:35:11.741Z,21.00
2022-10-06T14:37:16.126Z,21.00
2022-10-06T14:39:19.273Z,20.90
2022-10-06T14:41:24.921Z,20.80
2022-10-06T14:43:27.786Z,20.70
2022-10-06T14:45:33.182Z,20.50
2022-10-06T14:47:35.961Z,20.50
2022-10-06T14:49:38.879Z,20.50
2022-10-06T14:51:43.430Z,20.60
2022-10-06T14:53:53.964Z,20.60
2022-10-06T14:56:02.099Z,20.60
2022-10-06T14:58:04.910Z,20.50
2022-10-06T15:00:10.378Z,20.50
2022-10-06T15:02:14.092Z,20.50
2022-10-06T15:04:19.680Z,20.40
2022-10-06T15:06:42.093Z,20.50
2022-10-06T15:08:44.902Z,20.50
2022-10-06T15:10:53.958Z,20.60
2022-10-06T15:12:57.422Z,20.60
2022-10-06T15:15:00.235Z,20.60
2022-10-06T15:17:03.385Z,20.60
2022-10-06T15:19:08.163Z,20.60
2022-10-06T15:21:11.760Z,20.60
2022-10-06T15:23:14.543Z,20.60
2022-10-06T15:25:31.399Z,20.50
2022-10-06T15:27:53.246Z,20.50
2022-10-06T15:29:56.725Z,20.40
2022-10-06T15:32:00.295Z,20.40
2022-10-06T15:34:04.763Z,20.30
2022-10-06T15:36:17.427Z,20.20
2022-10-06T15:38:21.359Z,20.20
2022-10-06T15:40:24.244Z,20.20
2022-10-06T15:42:27.035Z,20.30
2022-10-06T15:44:34.505Z,20.30
2022-10-06T15:46:39.795Z,20.30
2022-10-06T15:48:43.098Z,20.30
2022-10-06T15:50:46.586Z,20.20
2022-10-06T15:52:49.466Z,20.10
2022-10-06T15:54:52.306Z,20.10
2022-10-06T15:56:56.665Z,20.10
2022-10-06T15:58:59.535Z,20.10
2022-10-06T16:01:03.944Z,20.10
2022-10-06T16:03:23.431Z,20.20
2022-10-06T16:05:48.044Z,20.10
2022-10-06T16:07:50.905Z,20.10
2022-10-06T16:09:53.981Z,20.00
2022-10-06T16:12:02.433Z,19.90
2022-10-06T16:14:05.361Z,19.90
2022-10-06T16:16:10.023Z,19.80
2022-10-06T16:18:12.961Z,19.80
2022-10-06T16:20:16.681Z,19.80
2022-10-06T16:22:21.778Z,19.80
2022-10-06T16:24:25.409Z,19.70
2022-10-06T16:26:29.026Z,19.60
2022-10-06T16:28:31.853Z,19.50
2022-10-06T16:30:34.711Z,19.50
2022-10-06T16:32:39.469Z,19.40
2022-10-06T16:34:42.444Z,19.30
2022-10-06T16:36:45.345Z,19.20
2022-10-06T16:38:51.829Z,19.20
2022-10-06T16:40:56.599Z,19.10
2022-10-06T16:42:59.439Z,19.10
2022-10-06T16:45:02.353Z,19.00
2022-10-06T16:47:05.268Z,19.00
2022-10-06T16:49:10.215Z,19.00
2022-10-06T16:51:15.089Z,19.00
2022-10-06T16:53:18.491Z,19.00
2022-10-06T16:55:21.340Z,18.90
2022-10-06T16:57:24.814Z,18.90
2022-10-06T16:59:28.766Z,18.90
2022-10-06T17:01:33.439Z,18.80
2022-10-06T17:03:36.543Z,18.70
2022-10-06T17:05:40.862Z,18.60
2022-10-06T17:07:43.729Z,18.60
2022-10-06T17:10:15.267Z,18.40
2022-10-06T17:12:09.310Z,18.30
2022-10-06T17:14:12.478Z,18.10
2022-10-06T17:16:18.020Z,17.90
2022-10-06T17:18:21.226Z,17.80
2022-10-06T17:20:24.091Z,17.70
2022-10-06T17:22:28.295Z,17.60
2022-10-06T17:24:31.314Z,17.50
2022-10-06T17:26:36.399Z,17.40
2022-10-06T17:28:41.164Z,17.40
2022-10-06T17:30:52.845Z,17.40
2022-10-06T17:32:55.647Z,17.40
2022-10-06T17:34:58.439Z,17.40
2022-10-06T17:37:02.156Z,17.40
2022-10-06T17:39:07.652Z,17.40
2022-10-06T17:41:12.423Z,17.30
2022-10-06T17:43:15.213Z,17.30
2022-10-06T17:45:21.278Z,17.20
2022-10-06T17:47:24.389Z,17.20
2022-10-06T17:49:28.574Z,17.20
2022-10-06T17:51:32.279Z,17.10
2022-10-06T17:53:35.076Z,17.00
2022-10-06T17:55:40.198Z,16.90
2022-10-06T17:57:43.042Z,16.90
2022-10-06T17:59:45.862Z,16.80
2022-10-06T18:01:49.012Z,16.70
2022-10-06T18:03:55.237Z,16.60
2022-10-06T18:06:00.466Z,16.60
2022-10-06T18:08:05.216Z,16.50
2022-10-06T18:10:26.319Z,16.50
2022-10-06T18:12:38.296Z,16.40
2022-10-06T18:14:41.507Z,16.40
2022-10-06T18:16:46.496Z,16.20
2022-10-06T18:18:51.774Z,15.90
2022-10-06T18:21:01.842Z,15.80
2022-10-06T18:23:04.967Z,15.70
2022-10-06T18:25:09.793Z,15.70
2022-10-06T18:27:14.030Z,15.70
2022-10-06T18:29:20.444Z,15.80
2022-10-06T18:31:23.409Z,15.80
2022-10-06T18:38:16.387Z,15.70
2022-10-06T18:40:19.157Z,15.70
2022-10-06T18:42:22.017Z,15.70
2022-10-06T18:44:40.151Z,15.70
2022-10-06T18:47:00.368Z,15.50
2022-10-06T18:49:10.377Z,15.40
2022-10-06T18:51:13.290Z,15.20
2022-10-06T18:53:16.453Z,15.20
2022-10-06T18:55:19.236Z,15.20
2022-10-06T18:57:27.243Z,15.20
2022-10-06T18:59:31.894Z,15.20
2022-10-06T19:01:34.796Z,15.20
2022-10-06T19:03:37.866Z,15.10
2022-10-06T19:05:40.995Z,15.10
2022-10-06T19:07:44.212Z,15.10
2022-10-06T19:09:47.549Z,15.10
2022-10-06T19:11:52.887Z,15.00
2022-10-06T19:13:57.789Z,15.00
2022-10-06T19:16:02.634Z,14.90
2022-10-06T19:18:07.073Z,14.90
2022-10-06T19:20:10.852Z,14.90
2022-10-06T19:22:14.724Z,14.80
2022-10-06T19:24:19.412Z,14.80
2022-10-06T19:26:22.887Z,14.80
2022-10-06T19:28:28.458Z,14.70
2022-10-06T19:30:31.405Z,14.50
2022-10-06T19:32:35.557Z,14.30
2022-10-06T19:34:39.031Z,14.10
2022-10-06T19:36:42.850Z,14.00
2022-10-06T19:38:46.220Z,14.00
2022-10-06T19:40:49.341Z,14.10
2022-10-06T19:42:51.271Z,14.10
2022-10-06T19:44:54.133Z,14.10
2022-10-06T19:46:56.934Z,14.10
2022-10-06T19:49:05.540Z,14.20
2022-10-06T19:51:13.968Z,14.20
2022-10-06T19:53:17.061Z,14.20
2022-10-06T19:55:22.821Z,14.20
2022-10-06T19:57:29.247Z,14.10
2022-10-06T19:59:32.075Z,14.00
2022-10-06T20:01:35.395Z,13.90
2022-10-06T20:03:40.265Z,13.90
2022-10-06T20:05:44.449Z,13.90
2022-10-06T20:07:47.953Z,13.80
2022-10-06T20:09:50.739Z,13.70
2022-10-06T20:11:53.553Z,13.60
2022-10-06T20:13:56.839Z,13.60
2022-10-06T20:16:01.842Z,13.60
2022-10-06T20:18:04.822Z,13.60
2022-10-06T20:20:08.362Z,13.60
2022-10-06T20:22:12.504Z,13.70
2022-10-06T20:24:18.083Z,13.70
2022-10-06T20:26:22.571Z,13.70
2022-10-06T20:28:25.427Z,13.70
2022-10-06T20:30:29.085Z,13.70
2022-10-06T20:32:31.874Z,13.50
2022-10-06T20:34:34.708Z,13.40
2022-10-06T20:36:38.429Z,13.30
2022-10-06T20:38:59.879Z,13.20
2022-10-06T20:41:02.738Z,13.30
2022-10-06T20:43:05.683Z,13.30
2022-10-06T20:45:09.341Z,13.30
2022-10-06T20:47:13.063Z,13.30
2022-10-06T20:49:17.642Z,13.30
2022-10-06T20:51:23.140Z,13.30
2022-10-06T20:53:32.068Z,13.20
2022-10-06T20:55:36.203Z,13.20
2022-10-06T20:57:42.441Z,13.10
2022-10-06T20:59:46.122Z,13.00
2022-10-06T21:01:51.149Z,13.00
2022-10-06T21:03:54.934Z,13.00
2022-10-06T21:05:57.892Z,13.00
2022-10-06T21:08:01.265Z,12.90
2022-10-06T21:10:04.415Z,13.00
2022-10-06T21:12:08.871Z,12.90
2022-10-06T21:14:12.474Z,12.80
2022-10-06T21:16:15.455Z,12.80
2022-10-06T21:18:18.601Z,12.80
2022-10-06T21:20:21.513Z,12.80
2022-10-06T21:22:24.434Z,12.80
2022-10-06T21:24:27.350Z,12.80
2022-10-06T21:26:30.702Z,12.80
2022-10-06T21:28:35.848Z,12.80
2022-10-06T21:30:38.786Z,12.70
2022-10-06T21:32:42.539Z,12.70
2022-10-06T21:34:45.469Z,12.70
2022-10-06T21:36:48.391Z,12.70
2022-10-06T21:38:52.781Z,12.70
2022-10-06T21:40:57.282Z,12.70
2022-10-06T21:43:00.203Z,12.60
2022-10-06T21:45:04.992Z,12.60
2022-10-06T21:47:07.962Z,12.60
2022-10-06T21:49:12.996Z,12.60
2022-10-06T21:51:15.886Z,12.50
2022-10-06T21:53:18.795Z,12.50
2022-10-06T21:55:21.755Z,12.40
2022-10-06T21:57:24.782Z,12.40
2022-10-06T21:59:27.782Z,12.40
2022-10-06T22:01:33.443Z,12.30
2022-10-06T22:03:37.119Z,12.30
2022-10-06T22:05:40.031Z,12.30
2022-10-06T22:07:43.456Z,12.40
2022-10-06T22:09:46.553Z,12.40
2022-10-06T22:11:49.941Z,12.30
2022-10-06T22:13:55.413Z,12.30
2022-10-06T22:15:58.381Z,12.30
2022-10-06T22:18:02.689Z,12.30
2022-10-06T22:20:06.528Z,12.30
2022-10-06T22:22:09.481Z,12.10
2022-10-06T22:24:13.819Z,12.00
2022-10-06T22:26:17.230Z,11.90
2022-10-06T22:28:20.821Z,11.90
2022-10-06T22:30:23.765Z,12.00
2022-10-06T22:32:26.702Z,12.00
2022-10-06T22:34:31.037Z,12.00
2022-10-06T22:36:34.744Z,12.00
2022-10-06T22:38:37.743Z,11.90
2022-10-06T22:40:40.614Z,11.90
2022-10-06T22:42:43.536Z,11.80
2022-10-06T22:44:46.461Z,11.80
2022-10-06T22:46:49.451Z,11.80
2022-10-06T22:48:52.413Z,11.80
2022-10-06T22:50:56.683Z,11.80
2022-10-06T22:52:59.603Z,11.80
2022-10-06T22:55:02.497Z,11.80
2022-10-06T22:57:06.788Z,11.90
2022-10-06T22:59:09.691Z,11.90
2022-10-06T23:01:14.010Z,11.90
2022-10-06T23:03:18.858Z,11.80
2022-10-06T23:05:21.846Z,11.80
2022-10-06T23:07:26.121Z,11.80
2022-10-06T23:09:29.026Z,11.80
2022-10-06T23:11:31.921Z,11.80
2022-10-06T23:13:35.240Z,11.70
2022-10-06T23:15:38.131Z,11.70
2022-10-06T23:17:41.398Z,11.60
2022-10-06T23:19:44.572Z,11.60
2022-10-06T23:21:47.485Z,11.60
2022-10-06T23:23:53.938Z,11.60
2022-10-06T23:25:56.806Z,11.50
2022-10-06T23:27:59.743Z,11.50
2022-10-06T23:30:03.331Z,11.50
2022-10-06T23:32:06.271Z,11.50
2022-10-06T23:34:09.303Z,11.50
2022-10-06T23:36:14.370Z,11.60
2022-10-06T23:38:17.304Z,11.50
2022-10-06T23:40:21.563Z,11.60
2022-10-06T23:42:24.470Z,11.60
2022-10-06T23:44:27.685Z,11.60
2022-10-06T23:46:30.625Z,11.50
2022-10-06T23:48:33.606Z,11.50
2022-10-06T23:50:36.514Z,11.50
2022-10-06T23:52:39.560Z,11.40
2022-10-06T23:54:42.493Z,11.40
2022-10-06T23:56:46.854Z,11.40
2022-10-06T23:58:49.817Z,11.20
